sensor_id;sensor_type;location;lat;lon;timestamp;P1;durP1;ratioP1;P2;durP2;ratioP2
1276;SDS011;631;51.024;13.826;2022-07-29T00:01:50;6.80;;;6.20;;
1276;SDS011;631;51.024;13.826;2022-07-29T00:04:17;7.90;;;7.20;;
1276;SDS011;631;51.024;13.826;2022-07-29T00:06:43;6.73;;;6.13;;
1276;SDS011;631;51.024;13.826;2022-07-29T00:09:09;8.10;;;6.17;;
1276;SDS011;631;51.024;13.826;2022-07-29T00:11:34;7.63;;;5.97;;
1276;SDS011;631;51.024;13.826;2022-07-29T00:14:00;9.80;;;7.03;;
1276;SDS011;631;51.024;13.826;2022-07-29T00:16:26;8.97;;;6.57;;
1276;SDS011;631;51.024;13.826;2022-07-29T00:18:51;7.10;;;6.40;;
1276;SDS011;631;51.024;13.826;2022-07-29T00:21:17;9.07;;;6.87;;
1276;SDS011;631;51.024;13.826;2022-07-29T00:23:42;7.57;;;6.67;;
1276;SDS011;631;51.024;13.826;2022-07-29T00:26:08;7.27;;;6.60;;
1276;SDS011;631;51.024;13.826;2022-07-29T00:28:34;7.00;;;6.40;;
1276;SDS011;631;51.024;13.826;2022-07-29T00:30:59;7.93;;;7.27;;
1276;SDS011;631;51.024;13.826;2022-07-29T00:33:25;8.10;;;7.47;;
1276;SDS011;631;51.024;13.826;2022-07-29T00:35:50;8.90;;;7.10;;
1276;SDS011;631;51.024;13.826;2022-07-29T00:38:17;9.73;;;8.90;;
1276;SDS011;631;51.024;13.826;2022-07-29T00:40:43;8.40;;;7.73;;
1276;SDS011;631;51.024;13.826;2022-07-29T00:43:10;14.50;;;9.13;;
1276;SDS011;631;51.024;13.826;2022-07-29T00:45:37;9.30;;;8.30;;
1276;SDS011;631;51.024;13.826;2022-07-29T00:48:03;8.67;;;8.03;;
1276;SDS011;631;51.024;13.826;2022-07-29T00:50:29;10.30;;;9.30;;
1276;SDS011;631;51.024;13.826;2022-07-29T00:52:56;10.17;;;9.00;;
1276;SDS011;631;51.024;13.826;2022-07-29T00:55:22;11.60;;;10.50;;
1276;SDS011;631;51.024;13.826;2022-07-29T00:57:48;12.13;;;10.93;;
1276;SDS011;631;51.024;13.826;2022-07-29T01:00:16;11.37;;;10.20;;
1276;SDS011;631;51.024;13.826;2022-07-29T01:02:44;10.87;;;9.83;;
1276;SDS011;631;51.024;13.826;2022-07-29T01:05:13;11.77;;;10.60;;
1276;SDS011;631;51.024;13.826;2022-07-29T01:07:40;13.23;;;11.93;;
1276;SDS011;631;51.024;13.826;2022-07-29T01:10:07;13.50;;;12.10;;
1276;SDS011;631;51.024;13.826;2022-07-29T01:12:36;12.47;;;11.37;;
1276;SDS011;631;51.024;13.826;2022-07-29T01:15:04;14.80;;;13.27;;
1276;SDS011;631;51.024;13.826;2022-07-29T01:17:33;17.40;;;15.73;;
1276;SDS011;631;51.024;13.826;2022-07-29T01:20:39;18.50;;;16.50;;
1276;SDS011;631;51.024;13.826;2022-07-29T01:26:22;26.00;;;18.70;;
1276;SDS011;631;51.024;13.826;2022-07-29T01:29:16;22.93;;;20.80;;
1276;SDS011;631;51.024;13.826;2022-07-29T01:31:49;26.60;;;24.00;;
1276;SDS011;631;51.024;13.826;2022-07-29T01:37:20;29.47;;;26.63;;
1276;SDS011;631;51.024;13.826;2022-07-29T01:40:02;31.73;;;28.20;;
1276;SDS011;631;51.024;13.826;2022-07-29T01:45:23;30.57;;;27.37;;
1276;SDS011;631;51.024;13.826;2022-07-29T01:48:02;29.07;;;26.23;;
1276;SDS011;631;51.024;13.826;2022-07-29T01:50:34;26.50;;;24.10;;
1276;SDS011;631;51.024;13.826;2022-07-29T01:53:06;27.10;;;24.50;;
1276;SDS011;631;51.024;13.826;2022-07-29T01:55:35;25.50;;;23.20;;
1276;SDS011;631;51.024;13.826;2022-07-29T01:58:04;24.80;;;22.43;;
1276;SDS011;631;51.024;13.826;2022-07-29T02:00:31;25.17;;;22.67;;
1276;SDS011;631;51.024;13.826;2022-07-29T02:02:58;26.00;;;23.40;;
1276;SDS011;631;51.024;13.826;2022-07-29T02:05:27;23.60;;;21.10;;
1276;SDS011;631;51.024;13.826;2022-07-29T02:07:55;24.03;;;21.60;;
1276;SDS011;631;51.024;13.826;2022-07-29T02:10:24;25.97;;;23.47;;
1276;SDS011;631;51.024;13.826;2022-07-29T02:12:51;29.50;;;26.80;;
1276;SDS011;631;51.024;13.826;2022-07-29T02:15:18;29.67;;;26.57;;
1276;SDS011;631;51.024;13.826;2022-07-29T02:17:52;31.67;;;28.57;;
1276;SDS011;631;51.024;13.826;2022-07-29T02:20:34;31.20;;;28.43;;
1276;SDS011;631;51.024;13.826;2022-07-29T02:23:01;34.00;;;30.60;;
1276;SDS011;631;51.024;13.826;2022-07-29T02:25:28;33.00;;;29.80;;
1276;SDS011;631;51.024;13.826;2022-07-29T02:27:54;31.47;;;28.47;;
1276;SDS011;631;51.024;13.826;2022-07-29T02:30:22;37.70;;;33.93;;
1276;SDS011;631;51.024;13.826;2022-07-29T02:32:49;37.30;;;33.77;;
1276;SDS011;631;51.024;13.826;2022-07-29T02:35:16;37.87;;;34.27;;
1276;SDS011;631;51.024;13.826;2022-07-29T02:37:43;38.70;;;35.00;;
1276;SDS011;631;51.024;13.826;2022-07-29T02:40:10;39.07;;;35.10;;
1276;SDS011;631;51.024;13.826;2022-07-29T02:42:38;37.53;;;33.60;;
1276;SDS011;631;51.024;13.826;2022-07-29T02:45:09;40.03;;;35.80;;
1276;SDS011;631;51.024;13.826;2022-07-29T02:50:13;36.87;;;33.07;;
1276;SDS011;631;51.024;13.826;2022-07-29T02:53:17;38.03;;;34.47;;
1276;SDS011;631;51.024;13.826;2022-07-29T02:55:59;36.77;;;33.10;;
1276;SDS011;631;51.024;13.826;2022-07-29T02:58:32;39.47;;;35.33;;
1276;SDS011;631;51.024;13.826;2022-07-29T03:00:59;43.87;;;39.73;;
1276;SDS011;631;51.024;13.826;2022-07-29T03:03:31;42.00;;;38.00;;
1276;SDS011;631;51.024;13.826;2022-07-29T03:06:00;41.23;;;37.10;;
1276;SDS011;631;51.024;13.826;2022-07-29T03:08:27;41.37;;;37.57;;
1276;SDS011;631;51.024;13.826;2022-07-29T03:10:54;37.57;;;34.13;;
1276;SDS011;631;51.024;13.826;2022-07-29T03:13:20;38.57;;;34.90;;
1276;SDS011;631;51.024;13.826;2022-07-29T03:15:46;35.57;;;32.27;;
1276;SDS011;631;51.024;13.826;2022-07-29T03:18:13;35.67;;;32.07;;
1276;SDS011;631;51.024;13.826;2022-07-29T03:20:40;36.17;;;32.33;;
1276;SDS011;631;51.024;13.826;2022-07-29T03:23:06;34.20;;;31.20;;
1276;SDS011;631;51.024;13.826;2022-07-29T03:25:32;34.73;;;31.23;;
1276;SDS011;631;51.024;13.826;2022-07-29T03:27:58;32.73;;;29.53;;
1276;SDS011;631;51.024;13.826;2022-07-29T03:30:24;30.93;;;28.20;;
1276;SDS011;631;51.024;13.826;2022-07-29T03:32:50;31.40;;;28.60;;
1276;SDS011;631;51.024;13.826;2022-07-29T03:35:20;30.33;;;27.27;;
1276;SDS011;631;51.024;13.826;2022-07-29T03:37:46;31.23;;;27.77;;
1276;SDS011;631;51.024;13.826;2022-07-29T03:40:13;31.00;;;28.00;;
1276;SDS011;631;51.024;13.826;2022-07-29T03:42:43;33.40;;;30.07;;
1276;SDS011;631;51.024;13.826;2022-07-29T03:45:12;35.40;;;31.90;;
1276;SDS011;631;51.024;13.826;2022-07-29T03:47:44;36.00;;;32.60;;
1276;SDS011;631;51.024;13.826;2022-07-29T03:50:14;38.30;;;34.50;;
1276;SDS011;631;51.024;13.826;2022-07-29T03:52:40;39.13;;;35.20;;
1276;SDS011;631;51.024;13.826;2022-07-29T03:55:06;39.03;;;35.10;;
1276;SDS011;631;51.024;13.826;2022-07-29T03:57:33;38.03;;;34.03;;
1276;SDS011;631;51.024;13.826;2022-07-29T04:00:01;39.73;;;35.90;;
1276;SDS011;631;51.024;13.826;2022-07-29T04:02:28;37.40;;;33.70;;
1276;SDS011;631;51.024;13.826;2022-07-29T04:04:54;37.07;;;33.53;;
1276;SDS011;631;51.024;13.826;2022-07-29T04:07:20;37.73;;;33.90;;
1276;SDS011;631;51.024;13.826;2022-07-29T04:09:45;38.97;;;34.97;;
1276;SDS011;631;51.024;13.826;2022-07-29T04:12:11;37.03;;;33.10;;
1276;SDS011;631;51.024;13.826;2022-07-29T04:14:37;38.20;;;34.30;;
1276;SDS011;631;51.024;13.826;2022-07-29T04:17:02;37.47;;;34.03;;
1276;SDS011;631;51.024;13.826;2022-07-29T04:19:29;39.03;;;35.13;;
1276;SDS011;631;51.024;13.826;2022-07-29T04:21:55;38.03;;;34.03;;
1276;SDS011;631;51.024;13.826;2022-07-29T04:24:22;37.83;;;34.23;;
1276;SDS011;631;51.024;13.826;2022-07-29T04:26:47;39.00;;;34.93;;
1276;SDS011;631;51.024;13.826;2022-07-29T04:29:14;39.77;;;34.67;;
1276;SDS011;631;51.024;13.826;2022-07-29T04:31:40;36.57;;;32.87;;
1276;SDS011;631;51.024;13.826;2022-07-29T04:34:06;39.23;;;35.40;;
1276;SDS011;631;51.024;13.826;2022-07-29T04:36:32;38.87;;;34.93;;
1276;SDS011;631;51.024;13.826;2022-07-29T04:38:57;37.57;;;33.83;;
1276;SDS011;631;51.024;13.826;2022-07-29T04:41:23;36.90;;;33.33;;
1276;SDS011;631;51.024;13.826;2022-07-29T04:43:48;35.90;;;32.40;;
1276;SDS011;631;51.024;13.826;2022-07-29T04:46:14;38.13;;;33.70;;
1276;SDS011;631;51.024;13.826;2022-07-29T04:48:40;35.60;;;32.30;;
1276;SDS011;631;51.024;13.826;2022-07-29T04:51:06;37.17;;;33.40;;
1276;SDS011;631;51.024;13.826;2022-07-29T04:53:31;38.77;;;35.07;;
1276;SDS011;631;51.024;13.826;2022-07-29T04:55:57;39.80;;;36.17;;
1276;SDS011;631;51.024;13.826;2022-07-29T04:58:23;41.87;;;37.40;;
1276;SDS011;631;51.024;13.826;2022-07-29T05:00:49;43.10;;;38.83;;
1276;SDS011;631;51.024;13.826;2022-07-29T05:03:15;46.70;;;41.80;;
1276;SDS011;631;51.024;13.826;2022-07-29T05:05:40;45.20;;;40.90;;
1276;SDS011;631;51.024;13.826;2022-07-29T05:08:07;49.63;;;44.50;;
1276;SDS011;631;51.024;13.826;2022-07-29T05:10:32;46.23;;;41.57;;
1276;SDS011;631;51.024;13.826;2022-07-29T05:13:02;48.63;;;43.47;;
1276;SDS011;631;51.024;13.826;2022-07-29T05:15:29;57.73;;;51.83;;
1276;SDS011;631;51.024;13.826;2022-07-29T05:17:54;59.00;;;52.80;;
1276;SDS011;631;51.024;13.826;2022-07-29T05:20:20;58.70;;;52.80;;
1276;SDS011;631;51.024;13.826;2022-07-29T05:22:50;58.57;;;52.87;;
1276;SDS011;631;51.024;13.826;2022-07-29T05:25:16;57.07;;;50.90;;
1276;SDS011;631;51.024;13.826;2022-07-29T05:27:42;54.80;;;49.10;;
1276;SDS011;631;51.024;13.826;2022-07-29T05:30:07;50.93;;;46.20;;
1276;SDS011;631;51.024;13.826;2022-07-29T05:32:33;51.70;;;46.47;;
1276;SDS011;631;51.024;13.826;2022-07-29T05:34:59;46.20;;;41.23;;
1276;SDS011;631;51.024;13.826;2022-07-29T05:37:24;44.40;;;40.10;;
1276;SDS011;631;51.024;13.826;2022-07-29T05:39:50;43.33;;;38.67;;
1276;SDS011;631;51.024;13.826;2022-07-29T05:42:16;43.47;;;38.90;;
1276;SDS011;631;51.024;13.826;2022-07-29T05:44:41;40.00;;;35.80;;
1276;SDS011;631;51.024;13.826;2022-07-29T05:47:07;39.17;;;35.40;;
1276;SDS011;631;51.024;13.826;2022-07-29T05:49:32;39.73;;;35.57;;
1276;SDS011;631;51.024;13.826;2022-07-29T05:51:58;37.10;;;33.67;;
1276;SDS011;631;51.024;13.826;2022-07-29T05:54:24;37.47;;;33.53;;
1276;SDS011;631;51.024;13.826;2022-07-29T05:56:50;36.73;;;31.53;;
1276;SDS011;631;51.024;13.826;2022-07-29T05:59:16;36.10;;;32.50;;
1276;SDS011;631;51.024;13.826;2022-07-29T06:01:41;37.63;;;33.90;;
1276;SDS011;631;51.024;13.826;2022-07-29T06:04:07;34.47;;;31.20;;
1276;SDS011;631;51.024;13.826;2022-07-29T06:06:33;28.80;;;25.83;;
1276;SDS011;631;51.024;13.826;2022-07-29T06:08:59;30.27;;;27.40;;
1276;SDS011;631;51.024;13.826;2022-07-29T06:11:26;30.90;;;27.70;;
1276;SDS011;631;51.024;13.826;2022-07-29T06:13:51;33.40;;;30.10;;
1276;SDS011;631;51.024;13.826;2022-07-29T06:16:18;30.23;;;27.10;;
1276;SDS011;631;51.024;13.826;2022-07-29T06:18:43;29.03;;;26.33;;
1276;SDS011;631;51.024;13.826;2022-07-29T06:21:09;27.97;;;25.30;;
1276;SDS011;631;51.024;13.826;2022-07-29T06:23:36;28.70;;;25.90;;
1276;SDS011;631;51.024;13.826;2022-07-29T06:26:02;28.53;;;26.00;;
1276;SDS011;631;51.024;13.826;2022-07-29T06:28:28;27.13;;;24.67;;
1276;SDS011;631;51.024;13.826;2022-07-29T06:30:53;30.73;;;27.80;;
1276;SDS011;631;51.024;13.826;2022-07-29T06:33:19;32.17;;;29.00;;
1276;SDS011;631;51.024;13.826;2022-07-29T06:35:45;32.50;;;29.30;;
1276;SDS011;631;51.024;13.826;2022-07-29T06:38:12;32.27;;;29.17;;
1276;SDS011;631;51.024;13.826;2022-07-29T06:40:40;31.87;;;28.87;;
1276;SDS011;631;51.024;13.826;2022-07-29T06:43:35;30.07;;;27.37;;
1276;SDS011;631;51.024;13.826;2022-07-29T06:46:04;28.90;;;26.20;;
1276;SDS011;631;51.024;13.826;2022-07-29T06:48:31;28.77;;;26.07;;
1276;SDS011;631;51.024;13.826;2022-07-29T06:50:57;27.60;;;25.00;;
1276;SDS011;631;51.024;13.826;2022-07-29T06:53:23;27.23;;;24.30;;
1276;SDS011;631;51.024;13.826;2022-07-29T06:55:49;27.17;;;24.67;;
1276;SDS011;631;51.024;13.826;2022-07-29T06:58:15;27.80;;;24.83;;
1276;SDS011;631;51.024;13.826;2022-07-29T07:00:43;26.33;;;24.10;;
1276;SDS011;631;51.024;13.826;2022-07-29T07:03:10;30.57;;;27.57;;
1276;SDS011;631;51.024;13.826;2022-07-29T07:05:36;28.80;;;26.10;;
1276;SDS011;631;51.024;13.826;2022-07-29T07:08:01;27.53;;;24.73;;
1276;SDS011;631;51.024;13.826;2022-07-29T07:10:27;30.70;;;27.77;;
1276;SDS011;631;51.024;13.826;2022-07-29T07:12:54;33.13;;;30.23;;
1276;SDS011;631;51.024;13.826;2022-07-29T07:15:19;33.27;;;29.67;;
1276;SDS011;631;51.024;13.826;2022-07-29T07:17:47;36.37;;;32.87;;
1276;SDS011;631;51.024;13.826;2022-07-29T07:20:13;35.47;;;32.00;;
1276;SDS011;631;51.024;13.826;2022-07-29T07:22:39;34.17;;;30.93;;
1276;SDS011;631;51.024;13.826;2022-07-29T07:25:05;33.50;;;30.10;;
1276;SDS011;631;51.024;13.826;2022-07-29T07:27:31;35.40;;;31.90;;
1276;SDS011;631;51.024;13.826;2022-07-29T07:29:57;35.50;;;31.90;;
1276;SDS011;631;51.024;13.826;2022-07-29T07:32:22;34.70;;;31.50;;
1276;SDS011;631;51.024;13.826;2022-07-29T07:34:48;38.20;;;34.40;;
1276;SDS011;631;51.024;13.826;2022-07-29T07:37:14;39.83;;;36.23;;
1276;SDS011;631;51.024;13.826;2022-07-29T07:39:40;36.97;;;33.50;;
1276;SDS011;631;51.024;13.826;2022-07-29T07:42:06;35.57;;;32.57;;
1276;SDS011;631;51.024;13.826;2022-07-29T07:44:31;36.33;;;32.90;;
1276;SDS011;631;51.024;13.826;2022-07-29T07:46:57;36.27;;;32.63;;
1276;SDS011;631;51.024;13.826;2022-07-29T07:49:23;33.97;;;30.83;;
1276;SDS011;631;51.024;13.826;2022-07-29T07:51:49;34.37;;;31.43;;
1276;SDS011;631;51.024;13.826;2022-07-29T07:54:15;35.80;;;32.37;;
1276;SDS011;631;51.024;13.826;2022-07-29T07:56:40;35.00;;;31.77;;
1276;SDS011;631;51.024;13.826;2022-07-29T07:59:06;35.60;;;32.20;;
1276;SDS011;631;51.024;13.826;2022-07-29T08:01:31;33.53;;;30.60;;
1276;SDS011;631;51.024;13.826;2022-07-29T08:03:57;31.73;;;28.57;;
1276;SDS011;631;51.024;13.826;2022-07-29T08:06:22;32.93;;;29.63;;
1276;SDS011;631;51.024;13.826;2022-07-29T08:08:50;30.80;;;27.87;;
1276;SDS011;631;51.024;13.826;2022-07-29T08:11:15;30.23;;;27.50;;
1276;SDS011;631;51.024;13.826;2022-07-29T08:13:41;29.30;;;26.50;;
1276;SDS011;631;51.024;13.826;2022-07-29T08:16:08;30.10;;;27.30;;
1276;SDS011;631;51.024;13.826;2022-07-29T08:18:37;29.17;;;26.57;;
1276;SDS011;631;51.024;13.826;2022-07-29T08:21:04;27.83;;;25.30;;
1276;SDS011;631;51.024;13.826;2022-07-29T08:23:29;27.30;;;24.70;;
1276;SDS011;631;51.024;13.826;2022-07-29T08:26:03;27.33;;;24.83;;
1276;SDS011;631;51.024;13.826;2022-07-29T08:28:35;27.60;;;24.87;;
1276;SDS011;631;51.024;13.826;2022-07-29T08:31:04;25.77;;;23.57;;
1276;SDS011;631;51.024;13.826;2022-07-29T08:33:30;26.47;;;23.90;;
1276;SDS011;631;51.024;13.826;2022-07-29T08:35:56;26.90;;;24.60;;
1276;SDS011;631;51.024;13.826;2022-07-29T08:38:21;25.83;;;23.63;;
1276;SDS011;631;51.024;13.826;2022-07-29T08:40:47;25.77;;;23.43;;
1276;SDS011;631;51.024;13.826;2022-07-29T08:43:13;26.47;;;24.23;;
1276;SDS011;631;51.024;13.826;2022-07-29T08:45:43;26.77;;;24.33;;
1276;SDS011;631;51.024;13.826;2022-07-29T08:48:13;24.27;;;22.13;;
1276;SDS011;631;51.024;13.826;2022-07-29T08:50:41;25.93;;;23.67;;
1276;SDS011;631;51.024;13.826;2022-07-29T08:53:08;25.33;;;22.80;;
1276;SDS011;631;51.024;13.826;2022-07-29T08:55:38;26.23;;;23.70;;
1276;SDS011;631;51.024;13.826;2022-07-29T08:58:07;24.43;;;22.23;;
1276;SDS011;631;51.024;13.826;2022-07-29T09:00:33;22.60;;;20.63;;
1276;SDS011;631;51.024;13.826;2022-07-29T09:03:01;24.47;;;22.27;;
1276;SDS011;631;51.024;13.826;2022-07-29T09:05:29;21.80;;;19.83;;
1276;SDS011;631;51.024;13.826;2022-07-29T09:07:56;22.50;;;20.20;;
1276;SDS011;631;51.024;13.826;2022-07-29T09:10:22;23.17;;;20.80;;
1276;SDS011;631;51.024;13.826;2022-07-29T09:12:48;22.10;;;20.20;;
1276;SDS011;631;51.024;13.826;2022-07-29T09:15:14;21.93;;;20.13;;
1276;SDS011;631;51.024;13.826;2022-07-29T09:17:42;21.23;;;19.60;;
1276;SDS011;631;51.024;13.826;2022-07-29T09:20:09;21.70;;;19.80;;
1276;SDS011;631;51.024;13.826;2022-07-29T09:22:39;23.23;;;21.33;;
1276;SDS011;631;51.024;13.826;2022-07-29T09:25:05;24.00;;;22.10;;
1276;SDS011;631;51.024;13.826;2022-07-29T09:27:31;22.37;;;20.47;;
1276;SDS011;631;51.024;13.826;2022-07-29T09:30:02;22.30;;;20.40;;
1276;SDS011;631;51.024;13.826;2022-07-29T09:35:24;22.97;;;20.90;;
1276;SDS011;631;51.024;13.826;2022-07-29T09:37:50;22.40;;;20.43;;
1276;SDS011;631;51.024;13.826;2022-07-29T09:40:17;22.23;;;20.40;;
1276;SDS011;631;51.024;13.826;2022-07-29T09:42:45;21.97;;;20.07;;
1276;SDS011;631;51.024;13.826;2022-07-29T09:45:11;20.17;;;18.53;;
1276;SDS011;631;51.024;13.826;2022-07-29T09:47:44;21.63;;;19.70;;
1276;SDS011;631;51.024;13.826;2022-07-29T09:50:14;20.30;;;18.50;;
1276;SDS011;631;51.024;13.826;2022-07-29T09:52:47;20.77;;;19.00;;
1276;SDS011;631;51.024;13.826;2022-07-29T09:55:14;20.60;;;19.00;;
1276;SDS011;631;51.024;13.826;2022-07-29T09:57:41;20.40;;;18.60;;
1276;SDS011;631;51.024;13.826;2022-07-29T10:00:11;20.60;;;19.00;;
1276;SDS011;631;51.024;13.826;2022-07-29T10:02:40;18.17;;;16.70;;
1276;SDS011;631;51.024;13.826;2022-07-29T10:07:47;17.50;;;16.20;;
1276;SDS011;631;51.024;13.826;2022-07-29T10:12:58;15.60;;;14.23;;
1276;SDS011;631;51.024;13.826;2022-07-29T10:15:29;15.90;;;14.53;;
1276;SDS011;631;51.024;13.826;2022-07-29T10:17:57;14.87;;;13.77;;
1276;SDS011;631;51.024;13.826;2022-07-29T10:20:23;13.70;;;12.70;;
1276;SDS011;631;51.024;13.826;2022-07-29T10:22:50;13.00;;;12.00;;
1276;SDS011;631;51.024;13.826;2022-07-29T10:25:16;11.97;;;11.23;;
1276;SDS011;631;51.024;13.826;2022-07-29T10:27:43;9.87;;;9.23;;
1276;SDS011;631;51.024;13.826;2022-07-29T10:30:10;8.87;;;8.23;;
1276;SDS011;631;51.024;13.826;2022-07-29T10:35:30;8.47;;;7.53;;
1276;SDS011;631;51.024;13.826;2022-07-29T10:40:49;7.03;;;6.73;;
1276;SDS011;631;51.024;13.826;2022-07-29T10:43:54;6.63;;;6.33;;
1276;SDS011;631;51.024;13.826;2022-07-29T10:46:35;7.00;;;6.47;;
1276;SDS011;631;51.024;13.826;2022-07-29T10:54:16;7.20;;;6.80;;
1276;SDS011;631;51.024;13.826;2022-07-29T10:56:42;7.63;;;7.27;;
1276;SDS011;631;51.024;13.826;2022-07-29T11:01:49;7.50;;;7.17;;
1276;SDS011;631;51.024;13.826;2022-07-29T11:04:16;7.70;;;7.10;;
1276;SDS011;631;51.024;13.826;2022-07-29T11:09:27;6.90;;;6.47;;
1276;SDS011;631;51.024;13.826;2022-07-29T11:11:55;7.63;;;7.20;;
1276;SDS011;631;51.024;13.826;2022-07-29T11:17:18;7.90;;;7.40;;
1276;SDS011;631;51.024;13.826;2022-07-29T11:19:43;7.43;;;7.03;;
1276;SDS011;631;51.024;13.826;2022-07-29T11:22:09;7.23;;;6.70;;
1276;SDS011;631;51.024;13.826;2022-07-29T11:24:36;7.40;;;6.80;;
1276;SDS011;631;51.024;13.826;2022-07-29T11:27:35;7.57;;;7.13;;
1276;SDS011;631;51.024;13.826;2022-07-29T11:30:04;7.57;;;7.13;;
1276;SDS011;631;51.024;13.826;2022-07-29T11:32:37;7.97;;;7.47;;
1276;SDS011;631;51.024;13.826;2022-07-29T11:37:36;7.13;;;6.70;;
1276;SDS011;631;51.024;13.826;2022-07-29T11:47:30;8.70;;;8.20;;
1276;SDS011;631;51.024;13.826;2022-07-29T11:49:59;8.20;;;7.80;;
1276;SDS011;631;51.024;13.826;2022-07-29T11:52:33;7.90;;;7.40;;
1276;SDS011;631;51.024;13.826;2022-07-29T11:55:11;7.70;;;7.30;;
1276;SDS011;631;51.024;13.826;2022-07-29T12:00:21;8.70;;;8.03;;
1276;SDS011;631;51.024;13.826;2022-07-29T12:02:48;8.20;;;7.80;;
1276;SDS011;631;51.024;13.826;2022-07-29T12:05:14;8.03;;;7.47;;
1276;SDS011;631;51.024;13.826;2022-07-29T12:07:40;8.40;;;7.90;;
1276;SDS011;631;51.024;13.826;2022-07-29T12:10:06;8.77;;;8.30;;
1276;SDS011;631;51.024;13.826;2022-07-29T12:12:33;9.43;;;8.63;;
1276;SDS011;631;51.024;13.826;2022-07-29T12:15:12;8.83;;;8.33;;
1276;SDS011;631;51.024;13.826;2022-07-29T12:17:43;8.80;;;8.20;;
1276;SDS011;631;51.024;13.826;2022-07-29T12:20:09;9.27;;;8.60;;
1276;SDS011;631;51.024;13.826;2022-07-29T12:22:36;8.10;;;7.60;;
1276;SDS011;631;51.024;13.826;2022-07-29T12:25:08;8.00;;;7.60;;
1276;SDS011;631;51.024;13.826;2022-07-29T12:27:36;8.00;;;7.40;;
1276;SDS011;631;51.024;13.826;2022-07-29T12:30:06;7.97;;;7.47;;
1276;SDS011;631;51.024;13.826;2022-07-29T12:32:37;8.13;;;7.63;;
1276;SDS011;631;51.024;13.826;2022-07-29T12:35:08;7.67;;;7.27;;
1276;SDS011;631;51.024;13.826;2022-07-29T12:37:37;7.53;;;7.13;;
1276;SDS011;631;51.024;13.826;2022-07-29T12:40:03;8.60;;;7.90;;
1276;SDS011;631;51.024;13.826;2022-07-29T12:42:31;8.37;;;7.97;;
1276;SDS011;631;51.024;13.826;2022-07-29T12:44:56;8.40;;;7.80;;
1276;SDS011;631;51.024;13.826;2022-07-29T12:47:22;8.90;;;8.50;;
1276;SDS011;631;51.024;13.826;2022-07-29T12:49:48;8.20;;;7.70;;
1276;SDS011;631;51.024;13.826;2022-07-29T12:54:56;8.80;;;8.00;;
1276;SDS011;631;51.024;13.826;2022-07-29T12:57:22;8.80;;;8.23;;
1276;SDS011;631;51.024;13.826;2022-07-29T13:02:56;8.20;;;7.70;;
1276;SDS011;631;51.024;13.826;2022-07-29T13:05:22;7.97;;;7.47;;
1276;SDS011;631;51.024;13.826;2022-07-29T13:07:50;8.23;;;7.53;;
1276;SDS011;631;51.024;13.826;2022-07-29T13:10:16;7.30;;;6.87;;
1276;SDS011;631;51.024;13.826;2022-07-29T13:15:36;8.07;;;7.57;;
1276;SDS011;631;51.024;13.826;2022-07-29T13:18:03;7.87;;;7.37;;
1276;SDS011;631;51.024;13.826;2022-07-29T13:20:29;8.20;;;7.67;;
1276;SDS011;631;51.024;13.826;2022-07-29T13:22:59;8.23;;;7.63;;
1276;SDS011;631;51.024;13.826;2022-07-29T13:25:29;7.80;;;7.40;;
1276;SDS011;631;51.024;13.826;2022-07-29T13:27:56;8.13;;;7.73;;
1276;SDS011;631;51.024;13.826;2022-07-29T13:30:22;7.77;;;7.20;;
1276;SDS011;631;51.024;13.826;2022-07-29T13:32:49;9.10;;;8.30;;
1276;SDS011;631;51.024;13.826;2022-07-29T13:35:15;7.77;;;7.27;;
1276;SDS011;631;51.024;13.826;2022-07-29T13:37:41;8.77;;;8.27;;
1276;SDS011;631;51.024;13.826;2022-07-29T13:40:07;8.30;;;7.80;;
1276;SDS011;631;51.024;13.826;2022-07-29T13:42:34;8.67;;;8.07;;
1276;SDS011;631;51.024;13.826;2022-07-29T13:45:00;7.93;;;7.40;;
1276;SDS011;631;51.024;13.826;2022-07-29T13:47:26;8.10;;;7.50;;
1276;SDS011;631;51.024;13.826;2022-07-29T13:49:53;7.27;;;6.87;;
1276;SDS011;631;51.024;13.826;2022-07-29T13:52:19;9.50;;;8.70;;
1276;SDS011;631;51.024;13.826;2022-07-29T13:54:45;8.50;;;7.87;;
1276;SDS011;631;51.024;13.826;2022-07-29T13:57:11;8.27;;;7.67;;
1276;SDS011;631;51.024;13.826;2022-07-29T13:59:37;8.20;;;7.60;;
1276;SDS011;631;51.024;13.826;2022-07-29T14:02:04;8.90;;;8.30;;
1276;SDS011;631;51.024;13.826;2022-07-29T14:04:30;8.23;;;7.83;;
1276;SDS011;631;51.024;13.826;2022-07-29T14:06:56;8.87;;;8.27;;
1276;SDS011;631;51.024;13.826;2022-07-29T14:09:21;9.00;;;8.10;;
1276;SDS011;631;51.024;13.826;2022-07-29T14:11:47;9.00;;;8.53;;
1276;SDS011;631;51.024;13.826;2022-07-29T14:14:15;8.70;;;8.20;;
1276;SDS011;631;51.024;13.826;2022-07-29T14:16:40;8.27;;;7.83;;
1276;SDS011;631;51.024;13.826;2022-07-29T14:19:06;8.87;;;8.37;;
1276;SDS011;631;51.024;13.826;2022-07-29T14:21:32;8.80;;;8.30;;
1276;SDS011;631;51.024;13.826;2022-07-29T14:23:58;8.40;;;8.00;;
1276;SDS011;631;51.024;13.826;2022-07-29T14:26:23;8.90;;;8.23;;
1276;SDS011;631;51.024;13.826;2022-07-29T14:28:49;8.47;;;7.97;;
1276;SDS011;631;51.024;13.826;2022-07-29T14:31:15;8.33;;;7.70;;
1276;SDS011;631;51.024;13.826;2022-07-29T14:33:41;8.37;;;7.80;;
1276;SDS011;631;51.024;13.826;2022-07-29T14:36:07;9.10;;;8.37;;
1276;SDS011;631;51.024;13.826;2022-07-29T14:38:34;8.30;;;7.63;;
1276;SDS011;631;51.024;13.826;2022-07-29T14:41:00;8.87;;;8.30;;
1276;SDS011;631;51.024;13.826;2022-07-29T14:43:26;8.93;;;8.50;;
1276;SDS011;631;51.024;13.826;2022-07-29T14:45:51;8.27;;;7.77;;
1276;SDS011;631;51.024;13.826;2022-07-29T14:48:20;8.57;;;8.07;;
1276;SDS011;631;51.024;13.826;2022-07-29T14:50:45;8.60;;;8.20;;
1276;SDS011;631;51.024;13.826;2022-07-29T14:53:11;8.77;;;8.30;;
1276;SDS011;631;51.024;13.826;2022-07-29T14:55:38;9.73;;;9.23;;
1276;SDS011;631;51.024;13.826;2022-07-29T14:58:04;9.77;;;9.20;;
1276;SDS011;631;51.024;13.826;2022-07-29T15:00:30;9.30;;;8.57;;
1276;SDS011;631;51.024;13.826;2022-07-29T15:02:58;9.60;;;9.10;;
1276;SDS011;631;51.024;13.826;2022-07-29T15:05:25;9.67;;;9.07;;
1276;SDS011;631;51.024;13.826;2022-07-29T15:07:51;10.23;;;9.50;;
1276;SDS011;631;51.024;13.826;2022-07-29T15:10:16;13.00;;;12.10;;
1276;SDS011;631;51.024;13.826;2022-07-29T15:12:42;13.63;;;12.50;;
1276;SDS011;631;51.024;13.826;2022-07-29T15:15:07;11.40;;;10.77;;
1276;SDS011;631;51.024;13.826;2022-07-29T15:17:33;11.03;;;10.43;;
1276;SDS011;631;51.024;13.826;2022-07-29T15:19:59;11.30;;;10.60;;
1276;SDS011;631;51.024;13.826;2022-07-29T15:22:25;9.80;;;9.30;;
1276;SDS011;631;51.024;13.826;2022-07-29T15:24:50;10.50;;;9.70;;
1276;SDS011;631;51.024;13.826;2022-07-29T15:27:16;10.50;;;9.90;;
1276;SDS011;631;51.024;13.826;2022-07-29T15:29:42;16.27;;;15.17;;
1276;SDS011;631;51.024;13.826;2022-07-29T15:32:08;15.73;;;14.53;;
1276;SDS011;631;51.024;13.826;2022-07-29T15:34:35;13.60;;;12.70;;
1276;SDS011;631;51.024;13.826;2022-07-29T15:37:01;11.50;;;10.70;;
1276;SDS011;631;51.024;13.826;2022-07-29T15:39:27;12.80;;;11.90;;
1276;SDS011;631;51.024;13.826;2022-07-29T15:41:52;13.37;;;12.33;;
1276;SDS011;631;51.024;13.826;2022-07-29T15:44:18;13.43;;;12.63;;
1276;SDS011;631;51.024;13.826;2022-07-29T15:46:44;13.60;;;12.43;;
1276;SDS011;631;51.024;13.826;2022-07-29T15:49:30;12.63;;;11.83;;
1276;SDS011;631;51.024;13.826;2022-07-29T15:52:06;13.13;;;12.40;;
1276;SDS011;631;51.024;13.826;2022-07-29T15:54:34;12.20;;;11.50;;
1276;SDS011;631;51.024;13.826;2022-07-29T15:57:01;12.90;;;12.20;;
1276;SDS011;631;51.024;13.826;2022-07-29T15:59:27;15.07;;;14.13;;
1276;SDS011;631;51.024;13.826;2022-07-29T16:01:53;16.87;;;15.77;;